Time;durP1;ratioP1;P1;durP2;ratioP2;P2;SDS_P1;SDS_P2;PMS_P1;PMS_P2;Temp;Humidity;BMP_temperature;BMP_pressure;BME280_temperature;BME280_humidity;BME280_pressure;Samples;Min_cycle;Max_cycle;Signal;HPM_P1;HPM_P2
2022/06/19 00:01:47;;;;;;;8.68;3.90;;;;;;;14.87;75.70;101249.73;1784394;80;21592;-59
2022/06/19 00:04:16;;;;;;;6.53;3.42;;;;;;;14.86;75.82;101249.33;1784483;80;21145;-60
2022/06/19 00:06:44;;;;;;;5.25;3.42;;;;;;;14.83;75.82;101240.22;1784245;80;21137;-60
2022/06/19 00:09:13;;;;;;;5.47;3.17;;;;;;;14.82;75.80;101246.44;1784248;80;21038;-59
2022/06/19 00:11:42;;;;;;;7.12;3.27;;;;;;;14.80;75.92;101253.61;1784271;80;21066;-57
2022/06/19 00:14:11;;;;;;;6.87;3.58;;;;;;;14.77;76.18;101249.77;1784260;80;21124;-60
2022/06/19 00:16:40;;;;;;;6.70;3.67;;;;;;;14.76;76.18;101254.23;1798348;78;21094;-59
2022/06/19 00:19:08;;;;;;;6.35;4.37;;;;;;;14.77;76.39;101251.10;1806342;79;21232;-59
2022/06/19 00:21:37;;;;;;;4.80;3.10;;;;;;;14.75;77.09;101251.64;1806263;79;21138;-59
2022/06/19 00:24:07;;;;;;;7.25;3.47;;;;;;;14.71;77.15;101251.41;1806395;79;21432;-60
2022/06/19 00:26:36;;;;;;;6.65;3.33;;;;;;;14.67;77.09;101248.89;1806410;79;21034;-60
2022/06/19 00:29:05;;;;;;;5.95;4.25;;;;;;;14.68;76.87;101255.05;1806328;79;21060;-60
2022/06/19 00:31:33;;;;;;;12.45;5.05;;;;;;;14.66;76.88;101261.77;1806427;79;21067;-60
2022/06/19 00:34:02;;;;;;;7.55;4.40;;;;;;;14.64;77.11;101260.98;1806285;79;21598;-60
2022/06/19 00:36:31;;;;;;;8.33;5.75;;;;;;;14.60;77.67;101254.56;1806381;79;21122;-59
2022/06/19 00:38:59;;;;;;;9.10;7.85;;;;;;;14.52;78.11;101257.55;1806354;79;21141;-59
2022/06/19 00:41:34;;;;;;;7.60;4.47;;;;;;;14.45;78.65;101258.77;1806394;79;21084;-60
2022/06/19 00:44:05;;;;;;;8.30;3.30;;;;;;;14.42;78.76;101261.55;1806351;79;21145;-60
2022/06/19 00:46:49;;;;;;;10.95;4.10;;;;;;;14.39;78.91;101252.45;1806237;79;21132;-60
2022/06/19 00:49:24;;;;;;;;;;;;;;;14.37;78.94;101252.98;1808362;79;21219;-60
2022/06/19 00:52:01;;;;;;;4.35;3.42;;;;;;;14.38;78.95;101248.06;1765144;81;20152;-59
2022/06/19 00:54:32;;;;;;;6.70;3.30;;;;;;;14.35;78.48;101250.41;1744121;82;21096;-60
2022/06/19 00:57:01;;;;;;;8.28;3.55;;;;;;;14.31;78.36;101253.25;1800337;80;21101;-60
2022/06/19 00:59:30;;;;;;;6.65;3.22;;;;;;;14.28;78.51;101255.12;1800493;80;21109;-59
2022/06/19 01:02:00;;;;;;;6.15;3.67;;;;;;;14.24;78.60;101254.88;1800388;80;21574;-60
2022/06/19 01:04:38;;;;;;;10.32;5.40;;;;;;;14.24;78.62;101253.55;1800412;80;21220;-60
2022/06/19 01:07:06;;;;;;;9.40;4.78;;;;;;;14.22;78.91;101250.11;1800422;79;21101;-59
2022/06/19 01:09:35;;;;;;;5.40;3.75;;;;;;;14.18;79.15;101252.48;1800311;80;21111;-60
2022/06/19 01:12:08;;;;;;;8.95;3.77;;;;;;;14.16;79.66;101252.17;1800425;80;21102;-60
2022/06/19 01:14:38;;;;;;;9.08;3.85;;;;;;;14.14;79.75;101250.06;1800490;80;21089;-59
2022/06/19 01:17:08;;;;;;;8.90;4.45;;;;;;;14.11;79.59;101251.08;1801705;79;21101;-60
2022/06/19 01:19:41;;;;;;;6.05;4.20;;;;;;;14.09;79.95;101251.58;1802991;79;21073;-60
2022/06/19 01:22:29;;;;;;;21.50;9.08;;;;;;;14.07;80.05;101254.77;1802746;79;21132;-60
2022/06/19 01:25:19;;;;;;;16.87;8.63;;;;;;;14.03;80.12;101250.55;1802373;79;21166;-60
2022/06/19 01:30:38;;;;;;;9.48;4.83;;;;;;;14.02;80.29;101250.17;1802817;79;21791;-61
2022/06/19 01:33:10;;;;;;;8.33;5.03;;;;;;;14.02;80.16;101260.77;1803125;79;21057;-60
2022/06/19 01:35:41;;;;;;;7.90;4.05;;;;;;;14.01;80.31;101256.38;1803130;79;21116;-60
2022/06/19 01:38:12;;;;;;;7.03;4.45;;;;;;;14.01;80.56;101266.50;1802951;79;21056;-60
2022/06/19 01:40:43;;;;;;;13.20;4.00;;;;;;;13.99;81.02;101268.83;1802058;78;21036;-61
2022/06/19 01:43:12;;;;;;;10.63;4.20;;;;;;;13.96;80.98;101270.28;1802957;79;21036;-61
2022/06/19 01:45:44;;;;;;;9.05;4.62;;;;;;;13.94;80.91;101269.49;1802931;79;21069;-60
2022/06/19 01:48:13;;;;;;;9.25;4.78;;;;;;;13.95;80.74;101272.55;1803067;79;21143;-60
2022/06/19 01:50:44;;;;;;;5.62;3.87;;;;;;;13.96;80.65;101280.43;1802910;79;21069;-60
2022/06/19 01:53:18;;;;;;;11.75;5.15;;;;;;;13.99;80.77;101280.27;1803029;79;21048;-60
2022/06/19 01:55:47;;;;;;;10.28;5.85;;;;;;;14.02;80.67;101281.94;1802990;79;21045;-61
2022/06/19 01:58:17;;;;;;;10.53;5.83;;;;;;;14.04;80.80;101291.52;1802931;79;21065;-60
2022/06/19 02:00:48;;;;;;;8.95;6.08;;;;;;;14.05;80.99;101287.96;1802936;79;21508;-60
2022/06/19 02:03:37;;;;;;;8.70;5.20;;;;;;;14.07;80.99;101291.39;1802974;79;21060;-60
2022/06/19 02:06:08;;;;;;;5.42;3.60;;;;;;;14.07;81.12;101295.81;1802854;79;21155;-60
2022/06/19 02:08:38;;;;;;;8.95;3.17;;;;;;;14.09;80.68;101289.98;1803109;79;21178;-60
2022/06/19 02:11:07;;;;;;;7.70;4.30;;;;;;;14.09;80.60;101288.66;1803022;79;21558;-60
2022/06/19 02:13:38;;;;;;;5.55;3.95;;;;;;;14.07;80.67;101281.25;1802920;79;21072;-60
2022/06/19 02:16:15;;;;;;;8.93;4.65;;;;;;;14.03;80.95;101277.02;1803027;79;21053;-61
2022/06/19 02:18:46;;;;;;;12.33;5.00;;;;;;;14.00;81.15;101274.06;1798477;79;21238;-60
2022/06/19 02:21:22;;;;;;;9.15;4.80;;;;;;;14.01;81.29;101288.15;1797855;80;21081;-61
2022/06/19 02:23:50;;;;;;;11.25;4.92;;;;;;;14.00;81.36;101281.13;1797816;80;21190;-61
2022/06/19 02:26:19;;;;;;;6.42;3.90;;;;;;;14.03;81.43;101282.32;1797959;80;21084;-61
2022/06/19 02:28:50;;;;;;;7.37;4.00;;;;;;;14.07;81.49;101281.25;1797787;80;21620;-61
2022/06/19 02:31:20;;;;;;;7.17;4.35;;;;;;;14.12;81.42;101279.26;1797844;80;21170;-61
2022/06/19 02:33:54;;;;;;;5.17;3.60;;;;;;;14.17;81.47;101286.53;1797942;80;21551;-61
2022/06/19 02:36:38;;;;;;;8.28;3.77;;;;;;;14.19;81.51;101279.38;1797826;80;21052;-60
2022/06/19 02:39:35;;;;;;;8.03;3.62;;;;;;;14.24;81.55;101272.09;1798173;80;21619;-61
2022/06/19 02:42:30;;;;;;;8.05;4.15;;;;;;;14.26;81.39;101275.52;1797863;79;21527;-61
2022/06/19 02:45:02;;;;;;;6.35;4.00;;;;;;;14.32;81.25;101276.17;1797847;80;21190;-61
2022/06/19 02:47:34;;;;;;;9.05;4.15;;;;;;;14.34;81.22;101276.96;1797763;80;21508;-62
2022/06/19 02:50:04;;;;;;;8.90;4.15;;;;;;;14.35;81.01;101282.64;1797831;80;21045;-61
2022/06/19 02:52:33;;;;;;;8.98;7.40;;;;;;;14.38;80.99;101286.48;1797850;80;21151;-61
2022/06/19 02:55:02;;;;;;;17.00;12.20;;;;;;;14.55;80.78;101281.27;1797804;80;21574;-61
2022/06/19 02:57:30;;;;;;;15.63;11.18;;;;;;;14.81;80.90;101288.01;1797816;80;21064;-61
2022/06/19 02:59:59;;;;;;;11.15;8.23;;;;;;;15.05;80.77;101284.63;1797766;80;21103;-63
2022/06/19 03:02:28;;;;;;;8.45;3.83;;;;;;;15.22;80.23;101284.27;1797942;79;21097;-62
2022/06/19 03:04:59;;;;;;;4.60;3.12;;;;;;;15.26;79.74;101280.52;1797739;80;21503;-61
2022/06/19 03:07:29;;;;;;;6.62;3.55;;;;;;;15.43;79.43;101277.86;1797552;79;21139;-61
2022/06/19 03:09:58;;;;;;;8.43;5.70;;;;;;;15.66;79.45;101278.50;1763266;80;21552;-60
2022/06/19 03:12:26;;;;;;;7.40;4.58;;;;;;;15.81;78.82;101279.05;1848171;77;21015;-61
2022/06/19 03:14:55;;;;;;;8.43;4.35;;;;;;;16.02;78.25;101278.84;1842425;77;21173;-62
2022/06/19 03:17:24;;;;;;;11.35;4.65;;;;;;;16.15;77.69;101278.57;1835863;77;21132;-63
2022/06/19 03:19:52;;;;;;;8.88;3.98;;;;;;;16.26;77.31;101277.14;1833207;76;21417;-62
2022/06/19 03:22:21;;;;;;;6.42;4.17;;;;;;;16.30;76.78;101278.69;1830170;78;21565;-60
2022/06/19 03:24:50;;;;;;;4.12;2.67;;;;;;;16.33;76.43;101275.88;1826235;78;21178;-59
2022/06/19 03:27:19;;;;;;;5.75;3.10;;;;;;;16.42;76.46;101282.02;1821236;79;21579;-59
2022/06/19 03:29:47;;;;;;;8.08;2.92;;;;;;;16.60;76.72;101277.48;1825962;78;21029;-60
2022/06/19 03:32:16;;;;;;;8.48;2.90;;;;;;;16.76;76.71;101281.45;1843164;78;21042;-59
2022/06/19 03:34:45;;;;;;;5.70;2.55;;;;;;;16.96;76.65;101277.70;1843176;77;21041;-60
2022/06/19 03:37:14;;;;;;;4.33;3.08;;;;;;;17.11;76.13;101277.28;1843167;78;21052;-60
2022/06/19 03:39:42;;;;;;;4.65;3.08;;;;;;;17.20;75.47;101275.42;1843049;77;21045;-63
2022/06/19 03:42:12;;;;;;;4.28;2.37;;;;;;;17.34;75.46;101273.30;1843140;78;21198;-59
2022/06/19 03:44:40;;;;;;;9.45;2.83;;;;;;;17.61;75.45;101273.91;1843263;78;21546;-59
2022/06/19 03:47:09;;;;;;;7.25;3.47;;;;;;;17.87;75.35;101272.36;1843189;78;21163;-59
2022/06/19 03:49:38;;;;;;;5.80;3.25;;;;;;;18.02;74.82;101271.44;1843219;77;21057;-59
2022/06/19 03:52:07;;;;;;;6.90;2.95;;;;;;;18.06;73.93;101275.62;1843163;76;21049;-62
2022/06/19 03:54:36;;;;;;;9.60;3.47;;;;;;;18.04;72.98;101274.02;1843185;78;21184;-60
2022/06/19 03:57:05;;;;;;;10.32;3.80;;;;;;;18.00;72.42;101280.45;1843212;78;21164;-60
2022/06/19 03:59:34;;;;;;;7.65;3.62;;;;;;;18.09;72.26;101279.89;1843279;78;21104;-60
2022/06/19 04:02:04;;;;;;;9.15;3.52;;;;;;;18.37;72.31;101291.48;1843174;78;21119;-59
2022/06/19 04:04:32;;;;;;;6.97;3.52;;;;;;;18.58;72.08;101292.80;1843399;78;21119;-59
2022/06/19 04:07:01;;;;;;;4.80;3.22;;;;;;;18.71;71.63;101288.86;1843093;78;21037;-59
2022/06/19 04:09:30;;;;;;;6.08;3.40;;;;;;;18.69;70.86;101293.45;1843306;78;21065;-59
2022/06/19 04:11:58;;;;;;;9.30;2.85;;;;;;;18.76;70.51;101294.77;1843467;78;21131;-60
2022/06/19 04:14:27;;;;;;;12.73;3.62;;;;;;;18.96;70.31;101304.64;1843420;78;21097;-59
2022/06/19 04:16:56;;;;;;;8.30;2.80;;;;;;;19.15;69.84;101303.81;1843327;78;21049;-59
2022/06/19 04:19:27;;;;;;;8.03;2.87;;;;;;;19.31;69.56;101298.78;1845833;76;21663;-60
2022/06/19 04:21:55;;;;;;;4.67;2.52;;;;;;;19.58;69.35;101302.25;1848772;77;21111;-59
2022/06/19 04:24:24;;;;;;;10.68;3.77;;;;;;;20.00;69.11;101300.29;1848635;78;21554;-59
2022/06/19 04:26:53;;;;;;;5.53;2.80;;;;;;;20.40;68.57;101306.84;1848587;78;21041;-60
2022/06/19 04:29:22;;;;;;;3.52;2.25;;;;;;;20.79;68.11;101310.30;1848700;78;21106;-60
2022/06/19 04:31:51;;;;;;;6.72;2.42;;;;;;;21.13;67.27;101309.13;1848510;77;21151;-60
2022/06/19 04:34:19;;;;;;;9.03;3.15;;;;;;;21.33;66.28;101312.14;1848632;78;21525;-60
2022/06/19 04:36:48;;;;;;;5.78;2.87;;;;;;;21.51;65.92;101310.78;1848690;78;21041;-57
2022/06/19 04:39:17;;;;;;;9.03;3.05;;;;;;;21.64;65.28;101310.70;1848572;78;21013;-57
2022/06/19 04:41:46;;;;;;;4.28;2.70;;;;;;;21.62;64.96;101305.95;1848598;77;21018;-58
2022/06/19 04:44:16;;;;;;;4.37;2.95;;;;;;;21.81;64.87;101315.25;1848680;77;21022;-58
2022/06/19 04:46:46;;;;;;;5.65;2.85;;;;;;;21.95;64.60;101309.17;1848589;78;21131;-58
2022/06/19 04:49:17;;;;;;;7.97;2.75;;;;;;;22.02;64.11;101308.19;1848711;77;21115;-57
2022/06/19 04:51:46;;;;;;;5.67;2.37;;;;;;;22.18;64.00;101313.20;1848605;78;21530;-57
2022/06/19 04:54:14;;;;;;;10.03;2.83;;;;;;;22.34;64.01;101312.39;1848579;76;21041;-57
2022/06/19 04:56:46;;;;;;;6.08;2.50;;;;;;;22.82;64.04;101313.08;1848563;78;21115;-58
2022/06/19 04:59:13;;;;;;;10.82;3.62;;;;;;;23.38;63.84;101312.89;1848131;78;21049;-60
2022/06/19 05:01:42;;;;;;;5.62;3.15;;;;;;;23.81;63.34;101309.28;1848642;78;21488;-58
2022/06/19 05:04:13;;;;;;;9.98;2.87;;;;;;;23.98;62.81;101320.42;1848529;78;21049;-58
2022/06/19 05:06:42;;;;;;;7.00;3.17;;;;;;;24.09;62.35;101313.61;1848543;78;21512;-58
2022/06/19 05:09:11;;;;;;;5.90;3.37;;;;;;;24.45;61.99;101307.30;1848650;78;21554;-58
2022/06/19 05:11:40;;;;;;;4.12;2.58;;;;;;;24.85;61.36;101314.52;1848399;78;21065;-59
2022/06/19 05:14:09;;;;;;;3.35;2.67;;;;;;;24.99;60.74;101306.52;1848601;78;21526;-59
2022/06/19 05:16:37;;;;;;;13.65;7.33;;;;;;;25.26;60.26;101309.91;1848596;78;21049;-62
2022/06/19 05:19:06;;;;;;;7.92;2.30;;;;;;;25.69;59.81;101306.38;1847920;77;21488;-63
2022/06/19 05:21:35;;;;;;;7.97;3.22;;;;;;;25.81;59.14;101307.42;1840086;77;21026;-63
2022/06/19 05:24:04;;;;;;;71.50;24.60;;;;;;;25.66;58.37;101314.28;1840184;78;21049;-64
2022/06/19 05:26:35;;;;;;;3.08;2.33;;;;;;;25.75;58.10;101314.76;1840084;78;21045;-63
2022/06/19 05:29:05;;;;;;;20.17;9.28;;;;;;;25.89;57.63;101311.23;1840069;77;21488;-63
2022/06/19 05:31:37;;;;;;;3.87;2.02;;;;;;;26.26;57.26;101313.13;1839986;77;21045;-63
2022/06/19 05:34:06;;;;;;;;;;;;;;;26.63;56.57;101314.97;1842734;78;21065;-64
2022/06/19 05:36:34;;;;;;;4.75;2.77;;;;;;;26.66;55.83;101311.47;1840053;77;20123;-64
2022/06/19 05:39:04;;;;;;;2.62;1.70;;;;;;;26.43;55.47;101312.36;1839971;78;21477;-64
2022/06/19 05:41:34;;;;;;;2.77;1.60;;;;;;;26.37;54.85;101315.16;1839952;78;21492;-64
2022/06/19 05:44:02;;;;;;;5.75;1.90;;;;;;;26.26;54.49;101319.38;1840093;77;21045;-64
2022/06/19 05:46:31;;;;;;;90.00;33.02;;;;;;;26.09;54.35;101325.56;1840045;78;21022;-64
2022/06/19 05:48:59;;;;;;;15.90;6.22;;;;;;;25.96;54.42;101317.78;1839909;78;21013;-66
2022/06/19 05:51:28;;;;;;;111.10;36.42;;;;;;;25.90;54.42;101317.00;1839973;78;21845;-65
2022/06/19 05:53:58;;;;;;;27.50;7.37;;;;;;;26.08;54.52;101315.75;1839988;77;21037;-64
2022/06/19 05:56:28;;;;;;;22.22;9.55;;;;;;;26.26;54.15;101317.18;1839990;77;21562;-64
2022/06/19 05:58:56;;;;;;;64.10;24.75;;;;;;;26.22;53.93;101319.33;1839977;78;21022;-64
2022/06/19 06:01:28;;;;;;;36.73;17.15;;;;;;;26.37;53.60;101312.46;1840082;77;21045;-64
2022/06/19 06:03:57;;;;;;;2.83;1.90;;;;;;;26.65;53.61;101319.23;1840015;78;21097;-65
2022/06/19 06:06:29;;;;;;;4.30;2.00;;;;;;;26.86;52.56;101314.06;1840050;78;21453;-65
2022/06/19 06:08:58;;;;;;;4.08;1.50;;;;;;;27.03;52.10;101313.21;1840078;77;21054;-65
2022/06/19 06:11:27;;;;;;;7.90;1.75;;;;;;;26.93;51.33;101313.29;1840058;77;21115;-65
2022/06/19 06:13:55;;;;;;;2.25;1.30;;;;;;;26.63;51.02;101307.70;1839971;78;21022;-65
2022/06/19 06:16:25;;;;;;;5.42;1.92;;;;;;;26.45;50.65;101312.19;1839970;78;21088;-65
2022/06/19 06:18:54;;;;;;;12.10;4.97;;;;;;;26.56;50.69;101311.50;1840057;78;21530;-58
2022/06/19 06:21:25;;;;;;;11.70;6.55;;;;;;;26.89;50.68;101308.33;1840018;76;21077;-59
2022/06/19 06:23:55;;;;;;;9.53;4.50;;;;;;;27.14;50.76;101306.73;1839968;78;21167;-60
2022/06/19 06:26:27;;;;;;;14.18;6.72;;;;;;;27.14;50.42;101313.48;1839972;78;21054;-59
2022/06/19 06:28:57;;;;;;;46.80;20.70;;;;;;;27.09;50.34;101310.39;1839878;78;21191;-59
2022/06/19 06:31:27;;;;;;;6.47;2.33;;;;;;;27.49;50.23;101312.64;1839997;78;21107;-58
2022/06/19 06:33:55;;;;;;;2.02;1.45;;;;;;;28.07;49.40;101315.27;1840071;78;21045;-59
2022/06/19 06:36:25;;;;;;;3.02;1.52;;;;;;;28.33;48.58;101310.33;1839959;78;21066;-59
2022/06/19 06:38:54;;;;;;;10.38;3.58;;;;;;;28.24;48.00;101316.72;1839957;78;21017;-59
2022/06/19 06:41:23;;;;;;;36.85;14.63;;;;;;;28.00;47.83;101318.76;1840011;78;21156;-59
2022/06/19 06:43:52;;;;;;;16.52;6.83;;;;;;;27.89;47.71;101318.52;1839950;78;21112;-59
2022/06/19 06:46:23;;;;;;;11.15;4.90;;;;;;;28.00;47.60;101316.92;1839994;78;21096;-59
2022/06/19 06:48:55;;;;;;;3.50;1.52;;;;;;;28.06;47.09;101312.21;1839961;78;21026;-60
2022/06/19 06:51:26;;;;;;;6.20;1.85;;;;;;;28.13;46.63;101315.62;1839968;77;21038;-58
2022/06/19 06:53:56;;;;;;;18.37;6.97;;;;;;;28.57;46.41;101307.38;1839913;78;21109;-58
2022/06/19 06:56:25;;;;;;;3.05;1.52;;;;;;;29.29;45.82;101307.73;1839930;78;21073;-59
2022/06/19 06:58:55;;;;;;;7.22;3.80;;;;;;;29.80;44.75;101312.97;1839932;78;21453;-59
2022/06/19 07:01:24;;;;;;;5.45;2.75;;;;;;;29.69;44.00;101310.58;1840048;77;21045;-59
2022/06/19 07:03:57;;;;;;;11.20;5.40;;;;;;;29.52;43.16;101311.11;1839930;78;21119;-59
2022/06/19 07:06:26;;;;;;;;;;;;;;;29.45;43.19;101314.52;1842773;78;21172;-60
2022/06/19 07:08:55;;;;;;;24.57;11.57;;;;;;;29.50;43.99;101319.94;1840049;78;20440;-59
2022/06/19 07:11:26;;;;;;;4.72;1.67;;;;;;;29.35;43.96;101315.18;1839971;78;21096;-59
2022/06/19 07:13:55;;;;;;;3.10;2.20;;;;;;;29.29;43.86;101319.06;1840011;78;21053;-60
2022/06/19 07:16:24;;;;;;;7.67;1.90;;;;;;;29.11;43.78;101322.77;1839957;78;21119;-58
2022/06/19 07:18:53;;;;;;;18.77;4.80;;;;;;;29.04;43.20;101313.60;1839834;78;21547;-59
2022/06/19 07:21:21;;;;;;;2.17;1.40;;;;;;;29.74;43.06;101306.88;1842875;77;21202;-57
2022/06/19 07:23:50;;;;;;;6.33;2.25;;;;;;;30.67;42.28;101308.09;1848521;78;21045;-59
2022/06/19 07:26:21;;;;;;;3.80;1.87;;;;;;;31.26;40.92;101306.19;1848396;78;21115;-57
2022/06/19 07:28:50;;;;;;;2.67;1.30;;;;;;;31.33;39.95;101303.08;1848482;77;21493;-58
2022/06/19 07:31:19;;;;;;;4.50;2.85;;;;;;;31.37;39.14;101307.11;1848378;78;21131;-58
2022/06/19 07:33:48;;;;;;;1.20;1.10;;;;;;;31.73;38.84;101299.68;1848467;78;21124;-58
2022/06/19 07:36:19;;;;;;;1.80;1.30;;;;;;;32.01;37.79;101304.48;1848470;77;21041;-57
2022/06/19 07:38:48;;;;;;;2.33;1.23;;;;;;;31.77;36.91;101305.08;1848781;78;21013;-60
2022/06/19 07:41:17;;;;;;;2.33;1.22;;;;;;;31.41;36.31;101293.99;1848425;77;21115;-59
2022/06/19 07:43:46;;;;;;;26.50;10.53;;;;;;;31.23;34.63;101300.62;1848464;76;21041;-58
2022/06/19 07:46:15;;;;;;;2.12;1.25;;;;;;;31.34;35.15;101307.50;1848598;78;21041;-59
2022/06/19 07:51:32;;;;;;;2.52;1.40;;;;;;;32.40;35.06;101304.20;1848517;78;21037;-60
2022/06/19 07:54:02;;;;;;;2.70;1.50;;;;;;;32.17;35.08;101298.88;1848457;76;21462;-61
2022/06/19 07:56:31;;;;;;;4.03;1.27;;;;;;;31.66;34.84;101306.90;1848543;78;21116;-58
2022/06/19 07:59:02;;;;;;;4.10;1.40;;;;;;;30.96;34.40;101307.44;1848763;78;21546;-58
2022/06/19 08:01:30;;;;;;;3.92;1.62;;;;;;;30.72;34.50;101302.45;1848694;78;21594;-58
2022/06/19 08:03:59;;;;;;;3.35;1.42;;;;;;;31.00;33.76;101302.48;1848564;78;21444;-58
2022/06/19 08:06:29;;;;;;;3.45;1.60;;;;;;;31.41;33.70;101300.30;1848528;77;21021;-59
2022/06/19 08:08:57;;;;;;;4.05;1.30;;;;;;;31.53;32.89;101304.28;1848568;78;21646;-58
2022/06/19 08:11:26;;;;;;;2.02;1.60;;;;;;;31.43;32.80;101292.80;1848560;77;21049;-59
2022/06/19 08:13:54;;;;;;;3.95;1.30;;;;;;;31.49;32.40;101294.80;1848538;78;21025;-60
2022/06/19 08:16:23;;;;;;;2.55;1.30;;;;;;;31.59;30.42;101295.05;1848655;78;21084;-58
2022/06/19 08:18:51;;;;;;;3.25;1.40;;;;;;;31.51;30.46;101297.34;1848547;77;21041;-59
2022/06/19 08:21:20;;;;;;;19.10;8.13;;;;;;;31.06;31.10;101294.95;1848344;77;21045;-59
2022/06/19 08:23:49;;;;;;;8.00;1.80;;;;;;;30.48;31.91;101287.66;1848673;77;21025;-59
2022/06/19 08:26:18;;;;;;;1.52;1.22;;;;;;;30.08;32.13;101291.67;1848660;78;21045;-59
2022/06/19 08:28:53;;;;;;;4.85;2.15;;;;;;;29.94;31.72;101295.98;1848501;78;21183;-58
2022/06/19 08:31:17;;;;;;;3.12;2.27;;;;;;;30.17;31.97;101289.27;1847750;77;21114;-58
2022/06/19 08:33:46;;;;;;;2.10;1.15;;;;;;;30.88;31.88;101295.24;1848413;77;21488;-58
2022/06/19 08:36:14;;;;;;;3.90;1.30;;;;;;;31.48;31.70;101297.70;1848538;78;21127;-59
2022/06/19 08:38:53;;;;;;;3.10;1.75;;;;;;;31.35;31.59;101288.77;1848657;78;21155;-58
2022/06/19 08:41:41;;;;;;;3.72;2.05;;;;;;;31.36;31.77;101291.84;1847084;78;21064;-58
2022/06/19 08:44:16;;;;;;;5.08;1.55;;;;;;;31.21;31.78;101286.36;1848558;77;21034;-59
2022/06/19 08:46:59;;;;;;;1.35;1.05;;;;;;;31.08;31.81;101284.24;1848473;77;21025;-61
2022/06/19 08:49:43;;;;;;;6.35;2.17;;;;;;;30.70;31.41;101278.69;1847189;78;21577;-59
2022/06/19 08:52:38;;;;;;;1.60;1.20;;;;;;;30.19;31.42;101270.95;1847601;78;21049;-59
2022/06/19 08:55:30;;;;;;;1.42;0.95;;;;;;;30.11;31.78;101266.06;1846996;78;21107;-58
2022/06/19 08:58:36;;;;;;;4.28;1.10;;;;;;;29.96;31.36;101268.66;1848203;77;21518;-59
2022/06/19 09:01:20;;;;;;;5.87;1.77;;;;;;;29.63;31.18;101261.40;1847147;77;21637;-60
2022/06/19 09:07:21;;;;;;;4.90;1.45;;;;;;;29.13;31.87;101265.66;1847745;78;21527;-58
2022/06/19 09:09:56;;;;;;;4.75;1.22;;;;;;;28.86;31.98;101263.08;1847753;77;21480;-60
2022/06/19 09:12:45;;;;;;;4.30;1.45;;;;;;;28.78;32.21;101271.20;1847716;78;21091;-59
2022/06/19 09:15:17;;;;;;;5.78;2.65;;;;;;;28.93;32.41;101267.84;1847711;78;21116;-60
2022/06/19 09:18:01;;;;;;;10.23;4.42;;;;;;;29.51;32.06;101264.16;1847852;78;21001;-59
2022/06/19 09:20:38;;;;;;;2.12;1.57;;;;;;;29.71;32.36;101267.31;1847744;78;21136;-60
2022/06/19 09:23:27;;;;;;;3.02;1.10;;;;;;;29.76;32.20;101264.13;1847061;78;21107;-60
2022/06/19 09:26:24;;;;;;;3.22;1.40;;;;;;;29.50;31.99;101267.03;1798480;76;21103;-60
2022/06/19 09:29:12;;;;;;;4.15;1.20;;;;;;;29.14;31.83;101266.89;1824693;78;21496;-60
2022/06/19 09:31:48;;;;;;;2.83;1.37;;;;;;;29.00;32.10;101271.06;1847741;78;21037;-61
2022/06/19 09:34:42;;;;;;;8.68;4.03;;;;;;;28.90;32.30;101270.87;1847685;78;21010;-61
2022/06/19 09:37:13;;;;;;;7.37;1.55;;;;;;;28.92;32.69;101270.20;1847774;78;21056;-60
2022/06/19 09:39:57;;;;;;;4.83;1.25;;;;;;;28.87;32.66;101263.43;1848037;78;21069;-60
2022/06/19 09:42:40;;;;;;;1.85;1.35;;;;;;;28.88;32.70;101267.84;1847656;78;21104;-61
2022/06/19 09:45:15;;;;;;;7.72;1.30;;;;;;;29.03;32.47;101262.61;1847776;77;21492;-60
2022/06/19 09:47:49;;;;;;;4.40;1.57;;;;;;;29.46;32.15;101254.31;1847850;77;21029;-60
2022/06/19 09:50:33;;;;;;;1.17;1.00;;;;;;;29.66;31.98;101253.44;1847858;77;20997;-59
2022/06/19 09:53:19;;;;;;;2.20;1.90;;;;;;;29.86;32.19;101259.33;1847376;76;21558;-59
2022/06/19 09:55:51;;;;;;;3.12;1.85;;;;;;;30.10;32.20;101257.08;1847404;78;21041;-59
2022/06/19 09:58:22;;;;;;;3.35;1.60;;;;;;;30.52;31.64;101256.38;1846849;78;21132;-58
2022/06/19 10:00:55;;;;;;;2.42;1.65;;;;;;;31.00;31.67;101254.37;1847203;78;21111;-59
2022/06/19 10:03:27;;;;;;;;;;;;;;;31.17;31.18;101257.31;1850418;78;21030;-58
2022/06/19 10:06:09;;;;;;;4.53;1.35;;;;;;;30.86;31.31;101251.92;1836624;77;20175;-60
2022/06/19 10:08:56;;;;;;;2.90;1.20;;;;;;;30.59;31.37;101245.97;1825155;79;21059;-57
2022/06/19 10:11:34;;;;;;;2.00;1.05;;;;;;;30.13;30.77;101255.86;1824910;79;21533;-59
2022/06/19 10:14:12;;;;;;;2.08;1.30;;;;;;;29.67;30.86;101247.50;1824907;79;21035;-56
2022/06/19 10:16:59;;;;;;;4.22;1.60;;;;;;;29.31;30.99;101260.08;1825020;79;21541;-60
2022/06/19 10:19:46;;;;;;;3.25;1.40;;;;;;;29.17;31.38;101261.63;1824828;79;21521;-57
2022/06/19 10:22:46;;;;;;;1.72;1.10;;;;;;;29.14;31.65;101257.40;1824818;79;21124;-58
2022/06/19 10:25:27;;;;;;;1.72;1.12;;;;;;;29.08;31.91;101260.73;1825027;79;21519;-60
2022/06/19 10:28:22;;;;;;;1.65;1.45;;;;;;;28.95;31.88;101259.88;1824896;79;21059;-61
2022/06/19 10:30:57;;;;;;;2.67;1.32;;;;;;;28.87;31.81;101263.95;1790177;80;21089;-61
2022/06/19 10:33:37;;;;;;;2.25;1.27;;;;;;;28.78;31.68;101257.66;1790354;80;21132;-60
2022/06/19 10:36:14;;;;;;;3.30;1.50;;;;;;;28.77;31.74;101257.30;1807133;79;21059;-60
2022/06/19 10:39:01;;;;;;;6.80;1.77;;;;;;;28.94;31.65;101251.91;1824693;79;21124;-60
2022/06/19 10:44:39;;;;;;;3.50;1.60;;;;;;;29.85;31.03;101249.52;1824896;79;21091;-58
2022/06/19 10:47:23;;;;;;;3.62;1.40;;;;;;;30.21;30.54;101253.09;1824785;79;21516;-57
2022/06/19 10:49:54;;;;;;;3.87;1.47;;;;;;;30.25;30.04;101244.95;1824913;79;21498;-58
2022/06/19 10:52:42;;;;;;;1.57;1.30;;;;;;;30.21;29.39;101244.95;1824277;79;21124;-60
2022/06/19 10:55:33;;;;;;;2.52;1.55;;;;;;;30.08;29.67;101248.75;1807541;79;21054;-59
2022/06/19 10:58:14;;;;;;;2.90;1.50;;;;;;;29.81;29.96;101254.96;1824875;79;21121;-58
2022/06/19 11:00:43;;;;;;;1.35;1.00;;;;;;;29.64;30.25;101252.25;1819537;79;21133;-58
2022/06/19 11:06:43;;;;;;;2.52;1.10;;;;;;;29.44;30.70;101250.94;1824889;77;21502;-58
2022/06/19 11:09:29;;;;;;;4.83;1.87;;;;;;;29.31;30.99;101247.39;1824928;79;21026;-60
2022/06/19 11:11:59;;;;;;;3.50;1.20;;;;;;;29.31;31.09;101240.61;1812760;77;21501;-61
2022/06/19 11:14:31;;;;;;;4.67;1.67;;;;;;;29.32;31.20;101236.02;1824831;77;21565;-61
2022/06/19 11:17:06;;;;;;;9.08;2.65;;;;;;;29.31;31.33;101232.47;1842463;77;21667;-60
2022/06/19 11:19:49;;;;;;;1.55;1.25;;;;;;;29.35;31.66;101228.39;1854481;76;21466;-60
2022/06/19 11:22:27;;;;;;;9.40;3.25;;;;;;;29.48;31.63;101219.72;1855789;77;21109;-60
2022/06/19 11:24:56;;;;;;;3.20;1.30;;;;;;;29.57;31.64;101230.06;1855729;77;21050;-60
2022/06/19 11:27:27;;;;;;;2.90;1.55;;;;;;;29.57;31.58;101228.70;1855724;77;21453;-59
2022/06/19 11:29:59;;;;;;;3.83;1.90;;;;;;;29.38;31.78;101223.12;1828506;77;21109;-59
2022/06/19 11:32:30;;;;;;;2.50;1.02;;;;;;;29.11;32.23;101231.94;1825009;77;21054;-61
2022/06/19 11:35:09;;;;;;;2.10;1.10;;;;;;;28.84;32.54;101231.23;1824794;78;21094;-61
2022/06/19 11:37:56;;;;;;;3.52;1.40;;;;;;;28.60;32.80;101235.27;1801419;79;21149;-61
2022/06/19 11:40:34;;;;;;;6.50;1.67;;;;;;;28.43;32.88;101223.01;1824252;79;21255;-61
2022/06/19 11:43:04;;;;;;;1.70;1.20;;;;;;;28.37;33.16;101222.81;1824777;79;21575;-61
2022/06/19 11:45:35;;;;;;;5.10;1.57;;;;;;;28.36;32.95;101224.68;1824854;79;21481;-61
2022/06/19 11:48:14;;;;;;;5.83;1.77;;;;;;;28.37;33.03;101223.68;1824812;79;21702;-60
2022/06/19 11:50:46;;;;;;;8.10;3.95;;;;;;;28.37;33.27;101227.74;1824895;79;21066;-60
2022/06/19 11:53:17;;;;;;;3.42;2.00;;;;;;;28.38;33.72;101225.36;1824866;79;21050;-61
2022/06/19 11:55:58;;;;;;;4.80;1.32;;;;;;;28.43;33.80;101227.07;1824731;79;21022;-61
2022/06/19 11:58:32;;;;;;;3.87;1.62;;;;;;;28.56;33.83;101214.95;1822297;78;21521;-60
2022/06/19 12:01:06;;;;;;;6.37;2.98;;;;;;;28.74;33.84;101221.08;1825231;77;21062;-60
2022/06/19 12:04:00;;;;;;;2.55;1.42;;;;;;;28.97;33.57;101214.98;1824825;78;21079;-60
2022/06/19 12:06:52;;;;;;;2.90;1.30;;;;;;;29.12;33.33;101219.22;1845137;75;21478;-62